sensor_id;sensor_type;location;lat;lon;timestamp;temperature;humidity
24446;DHT22;13347;50.984;5.822;2024-01-30T00:00:24;10.30;92.30
24446;DHT22;13347;50.984;5.822;2024-01-30T00:02:52;10.30;99.90
24446;DHT22;13347;50.984;5.822;2024-01-30T00:05:19;10.20;99.90
24446;DHT22;13347;50.984;5.822;2024-01-30T00:07:46;10.30;99.90
24446;DHT22;13347;50.984;5.822;2024-01-30T00:10:13;10.20;99.90
24446;DHT22;13347;50.984;5.822;2024-01-30T00:12:40;10.20;99.90
24446;DHT22;13347;50.984;5.822;2024-01-30T00:15:07;10.20;99.90
24446;DHT22;13347;50.984;5.822;2024-01-30T00:17:35;10.20;99.90
24446;DHT22;13347;50.984;5.822;2024-01-30T00:20:04;10.20;99.90
24446;DHT22;13347;50.984;5.822;2024-01-30T00:22:32;10.10;99.90
24446;DHT22;13347;50.984;5.822;2024-01-30T00:24:59;10.20;99.90
24446;DHT22;13347;50.984;5.822;2024-01-30T00:27:26;10.10;99.90
24446;DHT22;13347;50.984;5.822;2024-01-30T00:29:53;10.20;99.90
24446;DHT22;13347;50.984;5.822;2024-01-30T00:32:20;10.20;99.90
24446;DHT22;13347;50.984;5.822;2024-01-30T00:34:48;10.20;99.90
24446;DHT22;13347;50.984;5.822;2024-01-30T00:37:17;10.20;99.90
24446;DHT22;13347;50.984;5.822;2024-01-30T00:39:44;10.20;99.90
24446;DHT22;13347;50.984;5.822;2024-01-30T00:42:10;10.30;99.90
24446;DHT22;13347;50.984;5.822;2024-01-30T00:44:37;10.30;99.90
24446;DHT22;13347;50.984;5.822;2024-01-30T00:47:04;10.30;99.90
24446;DHT22;13347;50.984;5.822;2024-01-30T00:49:31;10.30;99.90
24446;DHT22;13347;50.984;5.822;2024-01-30T00:51:58;10.30;99.90
24446;DHT22;13347;50.984;5.822;2024-01-30T00:54:26;10.30;99.90
24446;DHT22;13347;50.984;5.822;2024-01-30T00:56:53;10.30;99.90
24446;DHT22;13347;50.984;5.822;2024-01-30T00:59:20;10.30;99.90
24446;DHT22;13347;50.984;5.822;2024-01-30T01:01:47;10.40;99.90
24446;DHT22;13347;50.984;5.822;2024-01-30T01:04:14;10.40;99.90
24446;DHT22;13347;50.984;5.822;2024-01-30T01:06:41;10.50;99.90
24446;DHT22;13347;50.984;5.822;2024-01-30T01:09:10;10.40;94.00
24446;DHT22;13347;50.984;5.822;2024-01-30T01:11:39;10.40;46.40
24446;DHT22;13347;50.984;5.822;2024-01-30T01:14:06;10.40;59.00
24446;DHT22;13347;50.984;5.822;2024-01-30T01:16:33;10.40;99.90
24446;DHT22;13347;50.984;5.822;2024-01-30T01:19:00;10.40;99.90
24446;DHT22;13347;50.984;5.822;2024-01-30T01:21:27;10.50;73.60
24446;DHT22;13347;50.984;5.822;2024-01-30T01:23:54;10.50;1.00
24446;DHT22;13347;50.984;5.822;2024-01-30T01:26:21;10.60;1.00
24446;DHT22;13347;50.984;5.822;2024-01-30T01:28:49;10.50;1.00
24446;DHT22;13347;50.984;5.822;2024-01-30T01:31:16;10.60;1.00
24446;DHT22;13347;50.984;5.822;2024-01-30T01:33:43;10.60;1.00
24446;DHT22;13347;50.984;5.822;2024-01-30T01:36:10;10.60;1.00
24446;DHT22;13347;50.984;5.822;2024-01-30T01:38:37;10.60;1.00
24446;DHT22;13347;50.984;5.822;2024-01-30T01:41:04;10.60;1.00
24446;DHT22;13347;50.984;5.822;2024-01-30T01:43:31;10.60;1.00
24446;DHT22;13347;50.984;5.822;2024-01-30T01:45:59;10.60;1.00
24446;DHT22;13347;50.984;5.822;2024-01-30T01:48:27;10.60;1.00
24446;DHT22;13347;50.984;5.822;2024-01-30T01:50:54;10.60;1.00
24446;DHT22;13347;50.984;5.822;2024-01-30T01:53:21;10.50;1.00
24446;DHT22;13347;50.984;5.822;2024-01-30T01:55:48;10.50;1.00
24446;DHT22;13347;50.984;5.822;2024-01-30T01:58:15;10.50;1.00
24446;DHT22;13347;50.984;5.822;2024-01-30T02:00:42;10.50;1.00
24446;DHT22;13347;50.984;5.822;2024-01-30T02:03:11;10.50;1.00
24446;DHT22;13347;50.984;5.822;2024-01-30T02:05:39;10.40;1.00
24446;DHT22;13347;50.984;5.822;2024-01-30T02:08:07;10.40;24.00
24446;DHT22;13347;50.984;5.822;2024-01-30T02:10:35;10.50;22.40
24446;DHT22;13347;50.984;5.822;2024-01-30T02:13:02;10.50;10.50
24446;DHT22;13347;50.984;5.822;2024-01-30T02:15:30;10.60;1.00
24446;DHT22;13347;50.984;5.822;2024-01-30T02:17:57;10.70;1.00
24446;DHT22;13347;50.984;5.822;2024-01-30T02:20:25;10.70;1.00
24446;DHT22;13347;50.984;5.822;2024-01-30T02:22:56;10.70;1.00
24446;DHT22;13347;50.984;5.822;2024-01-30T02:25:30;10.90;1.00
24446;DHT22;13347;50.984;5.822;2024-01-30T02:27:57;11.00;1.00
24446;DHT22;13347;50.984;5.822;2024-01-30T02:30:23;11.00;1.00
24446;DHT22;13347;50.984;5.822;2024-01-30T02:32:50;11.00;1.00
24446;DHT22;13347;50.984;5.822;2024-01-30T02:35:17;11.10;1.00
24446;DHT22;13347;50.984;5.822;2024-01-30T02:37:44;11.10;1.00
24446;DHT22;13347;50.984;5.822;2024-01-30T02:40:12;11.10;1.00
24446;DHT22;13347;50.984;5.822;2024-01-30T02:42:39;11.00;1.00
24446;DHT22;13347;50.984;5.822;2024-01-30T02:45:07;11.00;1.00
24446;DHT22;13347;50.984;5.822;2024-01-30T02:47:34;11.10;1.00
24446;DHT22;13347;50.984;5.822;2024-01-30T02:50:01;11.10;1.00
24446;DHT22;13347;50.984;5.822;2024-01-30T02:52:28;11.10;1.00
24446;DHT22;13347;50.984;5.822;2024-01-30T02:54:55;11.10;1.00
24446;DHT22;13347;50.984;5.822;2024-01-30T02:57:23;11.10;1.00
24446;DHT22;13347;50.984;5.822;2024-01-30T02:59:50;11.10;1.00
24446;DHT22;13347;50.984;5.822;2024-01-30T03:02:17;11.10;1.00
24446;DHT22;13347;50.984;5.822;2024-01-30T03:04:44;11.00;1.00
24446;DHT22;13347;50.984;5.822;2024-01-30T03:07:11;11.10;1.00
24446;DHT22;13347;50.984;5.822;2024-01-30T03:09:38;11.30;1.00
24446;DHT22;13347;50.984;5.822;2024-01-30T03:12:05;11.30;1.00
24446;DHT22;13347;50.984;5.822;2024-01-30T03:14:33;11.30;1.00
24446;DHT22;13347;50.984;5.822;2024-01-30T03:17:00;11.40;1.00
24446;DHT22;13347;50.984;5.822;2024-01-30T03:19:27;11.30;1.00
24446;DHT22;13347;50.984;5.822;2024-01-30T03:21:54;11.30;1.00
24446;DHT22;13347;50.984;5.822;2024-01-30T03:24:20;11.40;1.00
24446;DHT22;13347;50.984;5.822;2024-01-30T03:26:47;11.50;1.00
24446;DHT22;13347;50.984;5.822;2024-01-30T03:29:14;11.50;1.00
24446;DHT22;13347;50.984;5.822;2024-01-30T03:31:42;11.60;1.00
24446;DHT22;13347;50.984;5.822;2024-01-30T03:34:09;11.60;1.00
24446;DHT22;13347;50.984;5.822;2024-01-30T03:36:36;11.50;1.00
24446;DHT22;13347;50.984;5.822;2024-01-30T03:39:03;11.60;1.00
24446;DHT22;13347;50.984;5.822;2024-01-30T03:41:30;11.70;1.00
24446;DHT22;13347;50.984;5.822;2024-01-30T03:43:57;11.80;1.00
24446;DHT22;13347;50.984;5.822;2024-01-30T03:46:24;11.80;1.00
24446;DHT22;13347;50.984;5.822;2024-01-30T03:48:52;11.70;1.00
24446;DHT22;13347;50.984;5.822;2024-01-30T03:51:19;11.70;1.00
24446;DHT22;13347;50.984;5.822;2024-01-30T03:53:46;11.80;1.00
24446;DHT22;13347;50.984;5.822;2024-01-30T03:56:13;11.80;1.00
24446;DHT22;13347;50.984;5.822;2024-01-30T03:58:40;11.80;1.00
24446;DHT22;13347;50.984;5.822;2024-01-30T04:01:07;11.80;1.00
24446;DHT22;13347;50.984;5.822;2024-01-30T04:03:39;11.80;1.00
24446;DHT22;13347;50.984;5.822;2024-01-30T04:06:07;11.80;1.00
24446;DHT22;13347;50.984;5.822;2024-01-30T04:08:34;11.90;1.00
24446;DHT22;13347;50.984;5.822;2024-01-30T04:11:03;11.80;1.00
24446;DHT22;13347;50.984;5.822;2024-01-30T04:13:31;11.70;1.00
24446;DHT22;13347;50.984;5.822;2024-01-30T04:15:58;11.70;1.00
24446;DHT22;13347;50.984;5.822;2024-01-30T04:18:25;11.70;1.00
24446;DHT22;13347;50.984;5.822;2024-01-30T04:20:52;11.70;1.00
24446;DHT22;13347;50.984;5.822;2024-01-30T04:23:20;11.60;1.00
24446;DHT22;13347;50.984;5.822;2024-01-30T04:25:47;11.60;1.00
24446;DHT22;13347;50.984;5.822;2024-01-30T04:28:14;11.60;1.00
24446;DHT22;13347;50.984;5.822;2024-01-30T04:30:41;11.60;1.00
24446;DHT22;13347;50.984;5.822;2024-01-30T04:33:08;11.60;1.00
24446;DHT22;13347;50.984;5.822;2024-01-30T04:35:34;11.50;1.00
24446;DHT22;13347;50.984;5.822;2024-01-30T04:38:02;11.50;1.00
24446;DHT22;13347;50.984;5.822;2024-01-30T04:40:30;11.60;1.00
24446;DHT22;13347;50.984;5.822;2024-01-30T04:42:57;11.70;1.00
24446;DHT22;13347;50.984;5.822;2024-01-30T04:45:24;11.70;1.00
24446;DHT22;13347;50.984;5.822;2024-01-30T04:47:51;11.80;1.00
24446;DHT22;13347;50.984;5.822;2024-01-30T04:50:18;11.90;1.00
24446;DHT22;13347;50.984;5.822;2024-01-30T04:52:44;11.90;1.00
24446;DHT22;13347;50.984;5.822;2024-01-30T04:55:11;11.80;1.00
24446;DHT22;13347;50.984;5.822;2024-01-30T04:57:40;11.90;1.00
24446;DHT22;13347;50.984;5.822;2024-01-30T05:00:07;11.90;1.00
24446;DHT22;13347;50.984;5.822;2024-01-30T05:02:34;12.00;1.00
24446;DHT22;13347;50.984;5.822;2024-01-30T05:05:01;12.10;1.00
24446;DHT22;13347;50.984;5.822;2024-01-30T05:07:28;12.10;1.00
24446;DHT22;13347;50.984;5.822;2024-01-30T05:09:55;12.00;1.00
24446;DHT22;13347;50.984;5.822;2024-01-30T05:12:22;12.00;1.00
24446;DHT22;13347;50.984;5.822;2024-01-30T05:14:50;11.90;1.00
24446;DHT22;13347;50.984;5.822;2024-01-30T05:17:17;12.00;1.00
24446;DHT22;13347;50.984;5.822;2024-01-30T05:19:44;11.90;1.00
24446;DHT22;13347;50.984;5.822;2024-01-30T05:22:11;11.90;1.00
24446;DHT22;13347;50.984;5.822;2024-01-30T05:24:41;12.00;1.00
24446;DHT22;13347;50.984;5.822;2024-01-30T05:27:08;11.90;1.00
24446;DHT22;13347;50.984;5.822;2024-01-30T05:29:35;11.90;1.00
24446;DHT22;13347;50.984;5.822;2024-01-30T05:32:03;11.80;1.00
24446;DHT22;13347;50.984;5.822;2024-01-30T05:34:30;11.90;1.00
24446;DHT22;13347;50.984;5.822;2024-01-30T05:36:57;11.80;1.00
24446;DHT22;13347;50.984;5.822;2024-01-30T05:39:24;11.90;1.00
24446;DHT22;13347;50.984;5.822;2024-01-30T05:41:51;11.80;1.00
24446;DHT22;13347;50.984;5.822;2024-01-30T05:44:18;11.80;1.00
24446;DHT22;13347;50.984;5.822;2024-01-30T05:46:45;11.80;1.00
24446;DHT22;13347;50.984;5.822;2024-01-30T05:49:13;11.80;1.00
24446;DHT22;13347;50.984;5.822;2024-01-30T05:51:40;11.80;1.00
24446;DHT22;13347;50.984;5.822;2024-01-30T05:54:07;11.80;1.00
24446;DHT22;13347;50.984;5.822;2024-01-30T05:56:34;11.80;1.00
24446;DHT22;13347;50.984;5.822;2024-01-30T05:59:01;11.70;1.00
24446;DHT22;13347;50.984;5.822;2024-01-30T06:01:28;11.70;1.00
24446;DHT22;13347;50.984;5.822;2024-01-30T06:03:55;11.70;1.00
24446;DHT22;13347;50.984;5.822;2024-01-30T06:06:23;11.60;1.00
24446;DHT22;13347;50.984;5.822;2024-01-30T06:08:50;11.70;1.00
24446;DHT22;13347;50.984;5.822;2024-01-30T06:11:17;11.70;1.00
24446;DHT22;13347;50.984;5.822;2024-01-30T06:13:44;11.70;1.00
24446;DHT22;13347;50.984;5.822;2024-01-30T06:16:11;11.70;1.00
24446;DHT22;13347;50.984;5.822;2024-01-30T06:18:38;11.70;1.00
24446;DHT22;13347;50.984;5.822;2024-01-30T06:21:05;11.70;1.00
24446;DHT22;13347;50.984;5.822;2024-01-30T06:23:33;11.70;1.00
24446;DHT22;13347;50.984;5.822;2024-01-30T06:26:00;11.70;1.00
24446;DHT22;13347;50.984;5.822;2024-01-30T06:28:27;11.70;1.00
24446;DHT22;13347;50.984;5.822;2024-01-30T06:30:54;11.60;1.00
24446;DHT22;13347;50.984;5.822;2024-01-30T06:33:20;11.60;35.10
24446;DHT22;13347;50.984;5.822;2024-01-30T06:35:48;11.60;95.90
24446;DHT22;13347;50.984;5.822;2024-01-30T06:38:14;11.70;64.70
24446;DHT22;13347;50.984;5.822;2024-01-30T06:40:43;11.70;99.90
24446;DHT22;13347;50.984;5.822;2024-01-30T06:43:10;11.70;89.40
24446;DHT22;13347;50.984;5.822;2024-01-30T06:45:37;11.70;99.90
24446;DHT22;13347;50.984;5.822;2024-01-30T06:48:04;11.60;99.90
24446;DHT22;13347;50.984;5.822;2024-01-30T06:50:31;11.60;99.90
24446;DHT22;13347;50.984;5.822;2024-01-30T06:52:58;11.70;99.90
24446;DHT22;13347;50.984;5.822;2024-01-30T06:55:25;11.70;99.90
24446;DHT22;13347;50.984;5.822;2024-01-30T06:57:53;11.80;99.90
24446;DHT22;13347;50.984;5.822;2024-01-30T07:00:20;11.80;99.90
24446;DHT22;13347;50.984;5.822;2024-01-30T07:02:48;11.80;99.90
24446;DHT22;13347;50.984;5.822;2024-01-30T07:05:14;11.80;99.90
24446;DHT22;13347;50.984;5.822;2024-01-30T07:07:42;11.90;99.90
24446;DHT22;13347;50.984;5.822;2024-01-30T07:10:09;11.80;99.90
24446;DHT22;13347;50.984;5.822;2024-01-30T07:12:36;11.80;99.90
24446;DHT22;13347;50.984;5.822;2024-01-30T07:15:05;11.80;99.90
24446;DHT22;13347;50.984;5.822;2024-01-30T07:17:33;11.70;99.90
24446;DHT22;13347;50.984;5.822;2024-01-30T07:20:00;11.70;99.90
24446;DHT22;13347;50.984;5.822;2024-01-30T07:22:28;11.70;99.90
24446;DHT22;13347;50.984;5.822;2024-01-30T07:24:55;11.70;99.90
24446;DHT22;13347;50.984;5.822;2024-01-30T07:27:22;11.70;99.90
24446;DHT22;13347;50.984;5.822;2024-01-30T07:29:49;11.70;99.90
24446;DHT22;13347;50.984;5.822;2024-01-30T07:32:17;11.70;99.90
24446;DHT22;13347;50.984;5.822;2024-01-30T07:34:45;11.80;99.90
24446;DHT22;13347;50.984;5.822;2024-01-30T07:37:12;11.80;99.90
24446;DHT22;13347;50.984;5.822;2024-01-30T07:39:41;11.80;1.00
24446;DHT22;13347;50.984;5.822;2024-01-30T07:42:08;11.80;1.00
24446;DHT22;13347;50.984;5.822;2024-01-30T07:44:35;11.80;1.00
24446;DHT22;13347;50.984;5.822;2024-01-30T07:47:02;11.80;1.00
24446;DHT22;13347;50.984;5.822;2024-01-30T07:49:31;11.80;1.00
24446;DHT22;13347;50.984;5.822;2024-01-30T07:51:58;11.70;1.00
24446;DHT22;13347;50.984;5.822;2024-01-30T07:54:32;11.70;1.00
24446;DHT22;13347;50.984;5.822;2024-01-30T07:57:00;11.70;1.00
24446;DHT22;13347;50.984;5.822;2024-01-30T07:59:27;11.70;1.00
24446;DHT22;13347;50.984;5.822;2024-01-30T08:02:03;11.70;1.00
24446;DHT22;13347;50.984;5.822;2024-01-30T08:04:31;11.70;1.00
24446;DHT22;13347;50.984;5.822;2024-01-30T08:06:58;11.70;1.00
24446;DHT22;13347;50.984;5.822;2024-01-30T08:09:25;11.70;1.00
24446;DHT22;13347;50.984;5.822;2024-01-30T08:11:52;11.70;1.00
24446;DHT22;13347;50.984;5.822;2024-01-30T08:14:18;11.70;1.00
24446;DHT22;13347;50.984;5.822;2024-01-30T08:16:45;11.70;1.00
24446;DHT22;13347;50.984;5.822;2024-01-30T08:19:12;11.70;1.00
24446;DHT22;13347;50.984;5.822;2024-01-30T08:21:40;11.70;1.00
24446;DHT22;13347;50.984;5.822;2024-01-30T08:24:07;11.70;1.00
24446;DHT22;13347;50.984;5.822;2024-01-30T08:26:34;11.70;1.00
24446;DHT22;13347;50.984;5.822;2024-01-30T08:29:02;11.70;1.00
24446;DHT22;13347;50.984;5.822;2024-01-30T08:31:29;11.70;1.00
24446;DHT22;13347;50.984;5.822;2024-01-30T08:33:56;11.70;1.00
24446;DHT22;13347;50.984;5.822;2024-01-30T08:36:24;11.70;1.00
24446;DHT22;13347;50.984;5.822;2024-01-30T08:38:53;11.70;1.00
24446;DHT22;13347;50.984;5.822;2024-01-30T08:41:20;11.80;1.00
24446;DHT22;13347;50.984;5.822;2024-01-30T08:43:47;11.90;1.00
24446;DHT22;13347;50.984;5.822;2024-01-30T08:46:17;12.00;1.00
24446;DHT22;13347;50.984;5.822;2024-01-30T08:48:44;12.00;1.00
24446;DHT22;13347;50.984;5.822;2024-01-30T08:51:11;12.10;1.00
24446;DHT22;13347;50.984;5.822;2024-01-30T08:53:38;12.10;1.00
24446;DHT22;13347;50.984;5.822;2024-01-30T08:56:07;12.20;1.00
24446;DHT22;13347;50.984;5.822;2024-01-30T08:58:34;12.20;99.90
24446;DHT22;13347;50.984;5.822;2024-01-30T09:01:01;12.30;99.90
24446;DHT22;13347;50.984;5.822;2024-01-30T09:03:29;12.40;99.90
24446;DHT22;13347;50.984;5.822;2024-01-30T09:05:56;12.40;99.90
24446;DHT22;13347;50.984;5.822;2024-01-30T09:08:23;12.40;99.90
24446;DHT22;13347;50.984;5.822;2024-01-30T09:10:50;12.40;96.00
24446;DHT22;13347;50.984;5.822;2024-01-30T09:13:18;12.40;99.90
24446;DHT22;13347;50.984;5.822;2024-01-30T09:15:45;12.30;99.90
24446;DHT22;13347;50.984;5.822;2024-01-30T09:18:12;12.30;99.90
24446;DHT22;13347;50.984;5.822;2024-01-30T09:20:39;12.30;99.90
24446;DHT22;13347;50.984;5.822;2024-01-30T09:23:06;12.20;99.90
24446;DHT22;13347;50.984;5.822;2024-01-30T09:25:33;12.20;99.90
24446;DHT22;13347;50.984;5.822;2024-01-30T09:28:00;12.20;99.90
24446;DHT22;13347;50.984;5.822;2024-01-30T09:30:29;12.30;99.90
24446;DHT22;13347;50.984;5.822;2024-01-30T09:32:55;12.40;99.90
24446;DHT22;13347;50.984;5.822;2024-01-30T09:35:22;12.40;99.90
24446;DHT22;13347;50.984;5.822;2024-01-30T09:37:49;12.40;99.90
24446;DHT22;13347;50.984;5.822;2024-01-30T09:40:17;12.50;99.90
24446;DHT22;13347;50.984;5.822;2024-01-30T09:42:45;12.50;96.70
24446;DHT22;13347;50.984;5.822;2024-01-30T09:45:13;12.50;99.90
24446;DHT22;13347;50.984;5.822;2024-01-30T09:47:42;12.50;99.90
24446;DHT22;13347;50.984;5.822;2024-01-30T09:50:09;12.50;99.90
24446;DHT22;13347;50.984;5.822;2024-01-30T09:52:36;12.50;99.90
24446;DHT22;13347;50.984;5.822;2024-01-30T09:55:04;12.50;99.90
24446;DHT22;13347;50.984;5.822;2024-01-30T09:57:31;12.40;99.90
24446;DHT22;13347;50.984;5.822;2024-01-30T09:59:58;12.50;99.90
24446;DHT22;13347;50.984;5.822;2024-01-30T10:02:25;12.50;99.90
24446;DHT22;13347;50.984;5.822;2024-01-30T10:04:53;12.50;99.90
24446;DHT22;13347;50.984;5.822;2024-01-30T10:07:20;12.60;99.90
24446;DHT22;13347;50.984;5.822;2024-01-30T10:09:47;12.60;99.90
24446;DHT22;13347;50.984;5.822;2024-01-30T10:12:14;12.70;99.90
24446;DHT22;13347;50.984;5.822;2024-01-30T10:14:42;12.80;99.90
24446;DHT22;13347;50.984;5.822;2024-01-30T10:17:09;12.80;86.10
24446;DHT22;13347;50.984;5.822;2024-01-30T10:19:36;12.80;73.80
24446;DHT22;13347;50.984;5.822;2024-01-30T10:22:05;12.70;99.90
24446;DHT22;13347;50.984;5.822;2024-01-30T10:24:33;12.80;99.90
24446;DHT22;13347;50.984;5.822;2024-01-30T10:27:00;12.80;99.90
24446;DHT22;13347;50.984;5.822;2024-01-30T10:29:27;12.90;42.20
24446;DHT22;13347;50.984;5.822;2024-01-30T10:31:57;12.90;99.90
24446;DHT22;13347;50.984;5.822;2024-01-30T10:34:24;12.90;92.00
24446;DHT22;13347;50.984;5.822;2024-01-30T10:36:54;12.90;99.90
24446;DHT22;13347;50.984;5.822;2024-01-30T10:39:25;13.00;99.90
24446;DHT22;13347;50.984;5.822;2024-01-30T10:41:54;13.00;99.90
24446;DHT22;13347;50.984;5.822;2024-01-30T10:44:22;13.00;99.90
24446;DHT22;13347;50.984;5.822;2024-01-30T10:46:50;12.80;99.90
24446;DHT22;13347;50.984;5.822;2024-01-30T10:49:17;12.80;99.90
24446;DHT22;13347;50.984;5.822;2024-01-30T10:51:45;12.80;1.00
24446;DHT22;13347;50.984;5.822;2024-01-30T10:54:12;12.80;1.00
24446;DHT22;13347;50.984;5.822;2024-01-30T10:56:41;12.80;1.00
24446;DHT22;13347;50.984;5.822;2024-01-30T10:59:08;12.80;1.00
24446;DHT22;13347;50.984;5.822;2024-01-30T11:01:36;12.90;1.00
24446;DHT22;13347;50.984;5.822;2024-01-30T11:04:03;12.80;1.00
24446;DHT22;13347;50.984;5.822;2024-01-30T11:06:30;12.90;1.00
24446;DHT22;13347;50.984;5.822;2024-01-30T11:09:00;13.00;1.00
24446;DHT22;13347;50.984;5.822;2024-01-30T11:11:29;13.00;1.00
24446;DHT22;13347;50.984;5.822;2024-01-30T11:14:00;13.00;1.00
24446;DHT22;13347;50.984;5.822;2024-01-30T11:16:30;12.90;1.00
24446;DHT22;13347;50.984;5.822;2024-01-30T11:19:00;12.80;1.00
24446;DHT22;13347;50.984;5.822;2024-01-30T11:21:27;12.70;1.00
24446;DHT22;13347;50.984;5.822;2024-01-30T11:23:54;12.60;1.00
24446;DHT22;13347;50.984;5.822;2024-01-30T11:26:23;12.70;99.90
24446;DHT22;13347;50.984;5.822;2024-01-30T11:28:52;12.70;99.90
24446;DHT22;13347;50.984;5.822;2024-01-30T11:31:20;12.80;99.90
24446;DHT22;13347;50.984;5.822;2024-01-30T11:33:47;12.80;99.90
24446;DHT22;13347;50.984;5.822;2024-01-30T11:36:19;12.90;99.90
24446;DHT22;13347;50.984;5.822;2024-01-30T11:38:48;12.90;99.90
24446;DHT22;13347;50.984;5.822;2024-01-30T11:41:15;12.90;99.90
24446;DHT22;13347;50.984;5.822;2024-01-30T11:43:42;12.90;99.90
24446;DHT22;13347;50.984;5.822;2024-01-30T11:46:09;12.80;1.00
24446;DHT22;13347;50.984;5.822;2024-01-30T11:48:38;12.80;1.00
24446;DHT22;13347;50.984;5.822;2024-01-30T11:51:04;12.60;1.00
24446;DHT22;13347;50.984;5.822;2024-01-30T11:53:31;12.60;1.00
24446;DHT22;13347;50.984;5.822;2024-01-30T11:55:58;12.60;1.00
24446;DHT22;13347;50.984;5.822;2024-01-30T11:58:26;12.60;1.00
24446;DHT22;13347;50.984;5.822;2024-01-30T12:00:53;12.50;1.00
24446;DHT22;13347;50.984;5.822;2024-01-30T12:03:21;12.50;1.00
24446;DHT22;13347;50.984;5.822;2024-01-30T12:05:56;12.40;1.00
24446;DHT22;13347;50.984;5.822;2024-01-30T12:08:23;12.40;72.90
24446;DHT22;13347;50.984;5.822;2024-01-30T12:10:55;12.40;99.90
24446;DHT22;13347;50.984;5.822;2024-01-30T12:13:22;12.40;99.90
24446;DHT22;13347;50.984;5.822;2024-01-30T12:15:49;12.30;99.90
24446;DHT22;13347;50.984;5.822;2024-01-30T12:18:18;12.30;99.90
24446;DHT22;13347;50.984;5.822;2024-01-30T12:20:45;12.30;99.90
24446;DHT22;13347;50.984;5.822;2024-01-30T12:23:13;12.30;99.90
24446;DHT22;13347;50.984;5.822;2024-01-30T12:25:40;12.30;1.00
24446;DHT22;13347;50.984;5.822;2024-01-30T12:28:08;12.20;1.00
24446;DHT22;13347;50.984;5.822;2024-01-30T12:30:35;12.20;1.00
24446;DHT22;13347;50.984;5.822;2024-01-30T12:33:02;12.20;1.00
24446;DHT22;13347;50.984;5.822;2024-01-30T12:35:31;12.20;1.00
24446;DHT22;13347;50.984;5.822;2024-01-30T12:37:58;12.20;1.00
24446;DHT22;13347;50.984;5.822;2024-01-30T12:40:26;12.30;1.00
24446;DHT22;13347;50.984;5.822;2024-01-30T12:42:54;12.30;1.00
24446;DHT22;13347;50.984;5.822;2024-01-30T12:45:21;12.30;1.00
24446;DHT22;13347;50.984;5.822;2024-01-30T12:47:48;12.20;1.00
24446;DHT22;13347;50.984;5.822;2024-01-30T12:50:14;12.20;1.00
24446;DHT22;13347;50.984;5.822;2024-01-30T12:52:43;12.20;1.00
24446;DHT22;13347;50.984;5.822;2024-01-30T12:55:09;12.10;1.00
24446;DHT22;13347;50.984;5.822;2024-01-30T12:57:38;12.10;1.00
24446;DHT22;13347;50.984;5.822;2024-01-30T13:00:05;12.20;1.00
24446;DHT22;13347;50.984;5.822;2024-01-30T13:02:33;12.30;1.00
24446;DHT22;13347;50.984;5.822;2024-01-30T13:05:02;12.30;1.00
24446;DHT22;13347;50.984;5.822;2024-01-30T13:07:29;12.30;1.00
24446;DHT22;13347;50.984;5.822;2024-01-30T13:09:56;12.30;1.00
24446;DHT22;13347;50.984;5.822;2024-01-30T13:12:27;12.20;1.00
24446;DHT22;13347;50.984;5.822;2024-01-30T13:14:56;12.30;99.90
24446;DHT22;13347;50.984;5.822;2024-01-30T13:17:23;12.30;99.90
24446;DHT22;13347;50.984;5.822;2024-01-30T13:19:50;12.50;99.60
24446;DHT22;13347;50.984;5.822;2024-01-30T13:22:17;12.60;11.30
24446;DHT22;13347;50.984;5.822;2024-01-30T13:24:46;12.60;1.00
24446;DHT22;13347;50.984;5.822;2024-01-30T13:27:13;12.50;1.00
24446;DHT22;13347;50.984;5.822;2024-01-30T13:29:40;12.50;1.00
24446;DHT22;13347;50.984;5.822;2024-01-30T13:32:08;12.70;1.00
24446;DHT22;13347;50.984;5.822;2024-01-30T13:34:35;12.80;99.90
24446;DHT22;13347;50.984;5.822;2024-01-30T13:37:02;12.90;99.90
24446;DHT22;13347;50.984;5.822;2024-01-30T13:39:29;12.90;99.90
24446;DHT22;13347;50.984;5.822;2024-01-30T13:41:56;12.80;99.90
24446;DHT22;13347;50.984;5.822;2024-01-30T13:44:23;12.80;99.90
24446;DHT22;13347;50.984;5.822;2024-01-30T13:46:50;12.70;99.90
24446;DHT22;13347;50.984;5.822;2024-01-30T13:49:18;12.60;1.00
24446;DHT22;13347;50.984;5.822;2024-01-30T13:51:45;12.40;1.00
24446;DHT22;13347;50.984;5.822;2024-01-30T13:54:12;12.20;1.00
24446;DHT22;13347;50.984;5.822;2024-01-30T13:56:40;12.20;1.00
24446;DHT22;13347;50.984;5.822;2024-01-30T13:59:07;12.20;1.00
24446;DHT22;13347;50.984;5.822;2024-01-30T14:01:34;12.00;99.90
24446;DHT22;13347;50.984;5.822;2024-01-30T14:04:01;12.00;99.90
24446;DHT22;13347;50.984;5.822;2024-01-30T14:06:29;12.00;99.90
24446;DHT22;13347;50.984;5.822;2024-01-30T14:08:56;12.00;1.00
24446;DHT22;13347;50.984;5.822;2024-01-30T14:11:23;12.00;1.00
24446;DHT22;13347;50.984;5.822;2024-01-30T14:13:50;12.00;1.00
24446;DHT22;13347;50.984;5.822;2024-01-30T14:16:17;12.00;1.00
24446;DHT22;13347;50.984;5.822;2024-01-30T14:18:45;12.00;99.90
24446;DHT22;13347;50.984;5.822;2024-01-30T14:21:11;11.90;99.90
24446;DHT22;13347;50.984;5.822;2024-01-30T14:23:40;11.90;96.80
24446;DHT22;13347;50.984;5.822;2024-01-30T14:26:07;11.80;37.60
24446;DHT22;13347;50.984;5.822;2024-01-30T14:28:34;11.70;1.00
24446;DHT22;13347;50.984;5.822;2024-01-30T14:31:00;11.70;1.00
24446;DHT22;13347;50.984;5.822;2024-01-30T14:33:27;11.70;1.00
24446;DHT22;13347;50.984;5.822;2024-01-30T14:35:54;11.60;1.00
24446;DHT22;13347;50.984;5.822;2024-01-30T14:38:21;11.60;1.00
24446;DHT22;13347;50.984;5.822;2024-01-30T14:40:50;11.70;1.00
24446;DHT22;13347;50.984;5.822;2024-01-30T14:43:16;11.70;1.00
24446;DHT22;13347;50.984;5.822;2024-01-30T14:45:43;11.70;1.00
24446;DHT22;13347;50.984;5.822;2024-01-30T14:48:12;11.70;1.00
24446;DHT22;13347;50.984;5.822;2024-01-30T14:50:39;11.80;1.00
24446;DHT22;13347;50.984;5.822;2024-01-30T14:53:06;11.80;1.00
24446;DHT22;13347;50.984;5.822;2024-01-30T14:55:33;11.80;1.00
24446;DHT22;13347;50.984;5.822;2024-01-30T14:58:01;11.80;1.00
24446;DHT22;13347;50.984;5.822;2024-01-30T15:00:29;11.60;1.00
24446;DHT22;13347;50.984;5.822;2024-01-30T15:02:56;11.60;1.00
24446;DHT22;13347;50.984;5.822;2024-01-30T15:05:23;11.80;1.00
24446;DHT22;13347;50.984;5.822;2024-01-30T15:07:50;11.80;1.00
24446;DHT22;13347;50.984;5.822;2024-01-30T15:10:17;11.90;99.90
24446;DHT22;13347;50.984;5.822;2024-01-30T15:12:44;11.80;99.90
24446;DHT22;13347;50.984;5.822;2024-01-30T15:15:15;11.80;99.90
24446;DHT22;13347;50.984;5.822;2024-01-30T15:17:41;12.00;99.90
24446;DHT22;13347;50.984;5.822;2024-01-30T15:20:09;12.10;1.00
24446;DHT22;13347;50.984;5.822;2024-01-30T15:22:35;12.20;1.00
24446;DHT22;13347;50.984;5.822;2024-01-30T15:25:03;12.20;1.00
24446;DHT22;13347;50.984;5.822;2024-01-30T15:27:30;12.20;1.00
24446;DHT22;13347;50.984;5.822;2024-01-30T15:29:57;12.00;1.00
24446;DHT22;13347;50.984;5.822;2024-01-30T15:32:25;12.00;1.00
24446;DHT22;13347;50.984;5.822;2024-01-30T15:34:52;12.00;1.00
24446;DHT22;13347;50.984;5.822;2024-01-30T15:37:20;12.00;1.00
24446;DHT22;13347;50.984;5.822;2024-01-30T15:39:47;12.00;1.00